CheckWX is a tool to help pilots better visualize weather data.  It is not intended as a substitute for an official pre-flight weather briefing.

06:57:31 UTC

KBCE METAR
Bryce Canyon Airport
Bryce Canyon, Utah, USA
Current

1 hour ago

KBCE 190553Z AUTO 27009KT 10SM CLR 09/06 A3027 RMK AO2 SLP142 T00940056 10222 20094 51007
Observed
Jun-19 @ 05:53 UTC
Wind
  • 270° at 9 KTS
Visibility
10 SM
Flight Rules
VFR
Cloud Levels
  • Clear skies
Temperature
C / 48°F
Dewpoint
C / 43°F
Humidity
82%
Altimeter
30.27" Hg
Pressure
1025.02 hPa
Previous

2 hours ago

KBCE 190453Z AUTO 22006KT 10SM CLR 11/06 A3027 RMK AO2 SLP140 T01110056
Observed
Jun-19 @ 04:53 UTC
Wind
  • 220° at 6 KTS
Visibility
10 SM
Flight Rules
VFR
Cloud Levels
  • Clear skies
Temperature
11°C / 52°F
Dewpoint
C / 43°F
Humidity
72%
Altimeter
30.27" Hg
Pressure
1025.02 hPa
Previous

3 hours ago

KBCE 190353Z AUTO 00000KT 10SM CLR 11/07 A3026 RMK AO2 SLP146 T01060067
Observed
Jun-19 @ 03:53 UTC
Visibility
10 SM
Flight Rules
VFR
Cloud Levels
  • Clear skies
Temperature
11°C / 52°F
Dewpoint
C / 45°F
Humidity
77%
Altimeter
30.26" Hg
Pressure
1024.72 hPa